Strona główna
METAR-TAF:

METAR-TAF

Lotnisko :

Lima, Ohio, Stany Zjednoczone

Szerokość geograficzna: 40-42-29N, Długość geograficzna: 084-01-17W, wysokość: 297 m

Aktualna obserwacja pogody

Raport powstał 41 minut temu, godzina 19:53 UTC
Wiatr 9 kt od północno-północny zachód
Temperatura 29°C
Wilgotność 70%
Ciśnienie 1013 hPa
Widzialność: 16.1 km
bezchmurnie

METAR: KAOH 171953Z AUTO 33009KT 10SM CLR 29/23 A2991 RMK AO2 SLP118 T02940228

czas: 16:34 (20:34 UTC)


TAF: brakujący

Obserwacja i prognoza pogody dla ponad 4000 lotnisk (raport METAR i TAF).

Dostępne stacje oznaczono żółtymi i czerwonymi punktami na mapie.

Najedź kursorem aby zobaczyć nazwę stacji.

Kliknij aby zobaczyć obserwacje i prognozy pogody.

Aby zmienić mapę: kliknij na zielony przycisk z czarnym krzyżykiem, aby powiększyć; na zielony przycisk z myślnikiem, aby pomniejszyć; na zielone strzałki, aby przejść do map sąsiednich.


METAR-TAF: